sensor_id;sensor_type;location;lat;lon;timestamp;P1;durP1;ratioP1;P2;durP2;ratioP2
59193;SDS011;44967;48.598;15.650;2023-02-28T00:01:19;11.98;;;7.18;;
59193;SDS011;44967;48.598;15.650;2023-02-28T00:03:45;12.75;;;7.93;;
59193;SDS011;44967;48.598;15.650;2023-02-28T00:06:11;23.88;;;7.75;;
59193;SDS011;44967;48.598;15.650;2023-02-28T00:08:37;13.85;;;6.85;;
59193;SDS011;44967;48.598;15.650;2023-02-28T00:11:06;12.60;;;7.30;;
59193;SDS011;44967;48.598;15.650;2023-02-28T00:13:34;11.93;;;7.53;;
59193;SDS011;44967;48.598;15.650;2023-02-28T00:16:03;14.10;;;6.53;;
59193;SDS011;44967;48.598;15.650;2023-02-28T00:18:34;12.82;;;7.05;;
59193;SDS011;44967;48.598;15.650;2023-02-28T00:21:00;12.10;;;7.15;;
59193;SDS011;44967;48.598;15.650;2023-02-28T00:23:26;11.20;;;6.18;;
59193;SDS011;44967;48.598;15.650;2023-02-28T00:25:53;13.55;;;7.55;;
59193;SDS011;44967;48.598;15.650;2023-02-28T00:28:19;14.38;;;8.18;;
59193;SDS011;44967;48.598;15.650;2023-02-28T00:30:45;15.18;;;6.90;;
59193;SDS011;44967;48.598;15.650;2023-02-28T00:33:12;13.85;;;7.68;;
59193;SDS011;44967;48.598;15.650;2023-02-28T00:35:38;11.60;;;7.32;;
59193;SDS011;44967;48.598;15.650;2023-02-28T00:38:04;12.60;;;6.88;;
59193;SDS011;44967;48.598;15.650;2023-02-28T00:40:29;12.30;;;6.55;;
59193;SDS011;44967;48.598;15.650;2023-02-28T00:42:55;13.95;;;6.97;;
59193;SDS011;44967;48.598;15.650;2023-02-28T00:45:21;11.35;;;7.05;;
59193;SDS011;44967;48.598;15.650;2023-02-28T00:47:46;10.93;;;6.65;;
59193;SDS011;44967;48.598;15.650;2023-02-28T00:50:20;12.40;;;7.50;;
59193;SDS011;44967;48.598;15.650;2023-02-28T00:52:47;12.43;;;6.82;;
59193;SDS011;44967;48.598;15.650;2023-02-28T00:55:14;12.25;;;7.30;;
59193;SDS011;44967;48.598;15.650;2023-02-28T00:57:40;13.10;;;7.40;;
59193;SDS011;44967;48.598;15.650;2023-02-28T01:00:06;12.93;;;6.60;;
59193;SDS011;44967;48.598;15.650;2023-02-28T01:02:33;12.07;;;7.25;;
59193;SDS011;44967;48.598;15.650;2023-02-28T01:04:59;14.00;;;7.82;;
59193;SDS011;44967;48.598;15.650;2023-02-28T01:07:24;14.35;;;7.50;;
59193;SDS011;44967;48.598;15.650;2023-02-28T01:09:50;12.27;;;7.18;;
59193;SDS011;44967;48.598;15.650;2023-02-28T01:12:16;13.30;;;7.35;;
59193;SDS011;44967;48.598;15.650;2023-02-28T01:14:41;16.58;;;8.15;;
59193;SDS011;44967;48.598;15.650;2023-02-28T01:17:08;12.77;;;7.05;;
59193;SDS011;44967;48.598;15.650;2023-02-28T01:19:34;11.15;;;7.18;;
59193;SDS011;44967;48.598;15.650;2023-02-28T01:22:01;10.77;;;7.10;;
59193;SDS011;44967;48.598;15.650;2023-02-28T01:24:30;14.15;;;8.00;;
59193;SDS011;44967;48.598;15.650;2023-02-28T01:26:56;13.15;;;7.28;;
59193;SDS011;44967;48.598;15.650;2023-02-28T01:29:22;14.27;;;7.32;;
59193;SDS011;44967;48.598;15.650;2023-02-28T01:31:47;11.77;;;6.47;;
59193;SDS011;44967;48.598;15.650;2023-02-28T01:34:13;13.68;;;7.20;;
59193;SDS011;44967;48.598;15.650;2023-02-28T01:36:39;14.90;;;6.82;;
59193;SDS011;44967;48.598;15.650;2023-02-28T01:39:04;15.00;;;7.13;;
59193;SDS011;44967;48.598;15.650;2023-02-28T01:41:32;11.95;;;6.40;;
59193;SDS011;44967;48.598;15.650;2023-02-28T01:44:02;12.73;;;6.63;;
59193;SDS011;44967;48.598;15.650;2023-02-28T01:46:31;13.18;;;6.55;;
59193;SDS011;44967;48.598;15.650;2023-02-28T01:49:14;12.45;;;7.03;;
59193;SDS011;44967;48.598;15.650;2023-02-28T01:51:52;9.77;;;5.88;;
59193;SDS011;44967;48.598;15.650;2023-02-28T01:54:26;10.30;;;6.75;;
59193;SDS011;44967;48.598;15.650;2023-02-28T01:56:55;13.70;;;7.10;;
59193;SDS011;44967;48.598;15.650;2023-02-28T01:59:31;11.60;;;6.45;;
59193;SDS011;44967;48.598;15.650;2023-02-28T02:02:01;13.30;;;6.65;;
59193;SDS011;44967;48.598;15.650;2023-02-28T02:04:31;10.80;;;6.18;;
59193;SDS011;44967;48.598;15.650;2023-02-28T02:07:01;9.98;;;6.60;;
59193;SDS011;44967;48.598;15.650;2023-02-28T02:09:29;12.45;;;6.95;;
59193;SDS011;44967;48.598;15.650;2023-02-28T02:11:54;13.25;;;7.43;;
59193;SDS011;44967;48.598;15.650;2023-02-28T02:17:14;10.73;;;6.07;;
59193;SDS011;44967;48.598;15.650;2023-02-28T02:22:37;10.45;;;6.35;;
59193;SDS011;44967;48.598;15.650;2023-02-28T02:25:28;16.63;;;7.10;;
59193;SDS011;44967;48.598;15.650;2023-02-28T02:36:38;11.07;;;7.20;;
59193;SDS011;44967;48.598;15.650;2023-02-28T02:40:02;10.88;;;7.03;;
59193;SDS011;44967;48.598;15.650;2023-02-28T02:42:14;12.40;;;6.45;;
59193;SDS011;44967;48.598;15.650;2023-02-28T02:44:48;12.65;;;6.95;;
59193;SDS011;44967;48.598;15.650;2023-02-28T02:47:19;12.38;;;7.72;;
59193;SDS011;44967;48.598;15.650;2023-02-28T02:49:50;13.05;;;7.47;;
59193;SDS011;44967;48.598;15.650;2023-02-28T02:52:21;10.70;;;6.82;;
59193;SDS011;44967;48.598;15.650;2023-02-28T02:54:50;11.32;;;6.38;;
59193;SDS011;44967;48.598;15.650;2023-02-28T02:57:21;13.60;;;7.50;;
59193;SDS011;44967;48.598;15.650;2023-02-28T02:59:52;11.85;;;7.38;;
59193;SDS011;44967;48.598;15.650;2023-02-28T03:02:20;12.40;;;7.35;;
59193;SDS011;44967;48.598;15.650;2023-02-28T03:04:49;13.50;;;7.30;;
59193;SDS011;44967;48.598;15.650;2023-02-28T03:07:18;11.63;;;7.93;;
59193;SDS011;44967;48.598;15.650;2023-02-28T03:09:50;11.23;;;7.68;;
59193;SDS011;44967;48.598;15.650;2023-02-28T03:12:18;12.07;;;6.72;;
59193;SDS011;44967;48.598;15.650;2023-02-28T03:15:03;13.25;;;7.38;;
59193;SDS011;44967;48.598;15.650;2023-02-28T03:20:33;14.05;;;6.70;;
59193;SDS011;44967;48.598;15.650;2023-02-28T03:23:13;10.43;;;6.30;;
59193;SDS011;44967;48.598;15.650;2023-02-28T03:25:56;12.88;;;7.45;;
59193;SDS011;44967;48.598;15.650;2023-02-28T03:28:42;17.35;;;7.97;;
59193;SDS011;44967;48.598;15.650;2023-02-28T03:31:20;16.50;;;8.10;;
59193;SDS011;44967;48.598;15.650;2023-02-28T03:36:22;15.00;;;7.50;;
59193;SDS011;44967;48.598;15.650;2023-02-28T03:38:52;14.65;;;7.63;;
59193;SDS011;44967;48.598;15.650;2023-02-28T03:41:24;20.05;;;7.80;;
59193;SDS011;44967;48.598;15.650;2023-02-28T03:43:59;22.75;;;8.43;;
59193;SDS011;44967;48.598;15.650;2023-02-28T03:46:42;13.50;;;7.68;;
59193;SDS011;44967;48.598;15.650;2023-02-28T03:49:15;16.38;;;6.97;;
59193;SDS011;44967;48.598;15.650;2023-02-28T03:51:44;11.18;;;8.05;;
59193;SDS011;44967;48.598;15.650;2023-02-28T03:54:13;16.92;;;8.27;;
59193;SDS011;44967;48.598;15.650;2023-02-28T03:56:51;14.23;;;7.68;;
59193;SDS011;44967;48.598;15.650;2023-02-28T03:59:23;17.08;;;9.02;;
59193;SDS011;44967;48.598;15.650;2023-02-28T04:01:53;11.60;;;7.32;;
59193;SDS011;44967;48.598;15.650;2023-02-28T04:04:20;13.30;;;8.10;;
59193;SDS011;44967;48.598;15.650;2023-02-28T04:06:49;18.90;;;8.10;;
59193;SDS011;44967;48.598;15.650;2023-02-28T04:09:16;18.02;;;8.68;;
59193;SDS011;44967;48.598;15.650;2023-02-28T04:11:45;15.63;;;8.18;;
59193;SDS011;44967;48.598;15.650;2023-02-28T04:14:16;14.20;;;8.23;;
59193;SDS011;44967;48.598;15.650;2023-02-28T04:16:42;14.65;;;8.35;;
59193;SDS011;44967;48.598;15.650;2023-02-28T04:19:09;18.48;;;9.38;;
59193;SDS011;44967;48.598;15.650;2023-02-28T04:24:04;20.88;;;8.50;;
59193;SDS011;44967;48.598;15.650;2023-02-28T04:26:34;16.35;;;8.52;;
59193;SDS011;44967;48.598;15.650;2023-02-28T04:29:03;14.25;;;8.15;;
59193;SDS011;44967;48.598;15.650;2023-02-28T04:31:30;16.15;;;9.85;;
59193;SDS011;44967;48.598;15.650;2023-02-28T04:33:56;15.07;;;7.97;;
59193;SDS011;44967;48.598;15.650;2023-02-28T04:36:22;18.33;;;9.18;;
59193;SDS011;44967;48.598;15.650;2023-02-28T04:38:48;19.10;;;9.00;;
59193;SDS011;44967;48.598;15.650;2023-02-28T04:41:15;15.95;;;8.38;;
59193;SDS011;44967;48.598;15.650;2023-02-28T04:43:41;15.40;;;8.45;;
59193;SDS011;44967;48.598;15.650;2023-02-28T04:46:08;16.48;;;8.45;;
59193;SDS011;44967;48.598;15.650;2023-02-28T04:48:36;15.88;;;8.32;;
59193;SDS011;44967;48.598;15.650;2023-02-28T04:51:03;17.83;;;9.25;;
59193;SDS011;44967;48.598;15.650;2023-02-28T04:53:31;15.88;;;8.50;;
59193;SDS011;44967;48.598;15.650;2023-02-28T04:55:57;14.98;;;7.72;;
59193;SDS011;44967;48.598;15.650;2023-02-28T04:58:23;16.00;;;8.43;;
59193;SDS011;44967;48.598;15.650;2023-02-28T05:00:50;17.67;;;9.73;;
59193;SDS011;44967;48.598;15.650;2023-02-28T05:03:16;19.95;;;8.65;;
59193;SDS011;44967;48.598;15.650;2023-02-28T05:05:42;15.95;;;9.95;;
59193;SDS011;44967;48.598;15.650;2023-02-28T05:08:08;19.35;;;10.43;;
59193;SDS011;44967;48.598;15.650;2023-02-28T05:10:35;18.02;;;9.30;;
59193;SDS011;44967;48.598;15.650;2023-02-28T05:13:01;17.60;;;9.10;;
59193;SDS011;44967;48.598;15.650;2023-02-28T05:15:27;20.25;;;9.23;;
59193;SDS011;44967;48.598;15.650;2023-02-28T05:17:53;19.98;;;9.93;;
59193;SDS011;44967;48.598;15.650;2023-02-28T05:20:18;15.23;;;8.57;;
59193;SDS011;44967;48.598;15.650;2023-02-28T05:22:44;16.60;;;9.30;;
59193;SDS011;44967;48.598;15.650;2023-02-28T05:25:19;18.17;;;10.05;;
59193;SDS011;44967;48.598;15.650;2023-02-28T05:27:48;20.98;;;9.82;;
59193;SDS011;44967;48.598;15.650;2023-02-28T05:30:14;22.13;;;10.27;;
59193;SDS011;44967;48.598;15.650;2023-02-28T05:32:40;24.88;;;11.13;;
59193;SDS011;44967;48.598;15.650;2023-02-28T05:35:10;23.20;;;10.00;;
59193;SDS011;44967;48.598;15.650;2023-02-28T05:37:37;21.25;;;9.93;;
59193;SDS011;44967;48.598;15.650;2023-02-28T05:40:03;22.27;;;9.98;;
59193;SDS011;44967;48.598;15.650;2023-02-28T05:42:36;24.05;;;11.27;;
59193;SDS011;44967;48.598;15.650;2023-02-28T05:45:03;19.33;;;10.38;;
59193;SDS011;44967;48.598;15.650;2023-02-28T05:47:30;20.25;;;10.07;;
59193;SDS011;44967;48.598;15.650;2023-02-28T05:49:56;15.45;;;9.25;;
59193;SDS011;44967;48.598;15.650;2023-02-28T05:52:22;18.55;;;9.52;;
59193;SDS011;44967;48.598;15.650;2023-02-28T05:54:49;21.08;;;10.73;;
59193;SDS011;44967;48.598;15.650;2023-02-28T05:57:15;17.27;;;9.70;;
59193;SDS011;44967;48.598;15.650;2023-02-28T05:59:40;18.83;;;9.90;;
59193;SDS011;44967;48.598;15.650;2023-02-28T06:02:08;20.75;;;11.52;;
59193;SDS011;44967;48.598;15.650;2023-02-28T06:04:37;21.17;;;10.48;;
59193;SDS011;44967;48.598;15.650;2023-02-28T06:07:03;23.92;;;11.32;;
59193;SDS011;44967;48.598;15.650;2023-02-28T06:09:28;17.58;;;9.45;;
59193;SDS011;44967;48.598;15.650;2023-02-28T06:11:54;20.00;;;10.68;;
59193;SDS011;44967;48.598;15.650;2023-02-28T06:14:22;21.25;;;11.38;;
59193;SDS011;44967;48.598;15.650;2023-02-28T06:16:48;18.70;;;9.68;;
59193;SDS011;44967;48.598;15.650;2023-02-28T06:19:13;21.35;;;10.90;;
59193;SDS011;44967;48.598;15.650;2023-02-28T06:21:41;22.98;;;10.55;;
59193;SDS011;44967;48.598;15.650;2023-02-28T06:24:06;23.35;;;11.13;;
59193;SDS011;44967;48.598;15.650;2023-02-28T06:26:33;28.65;;;11.18;;
59193;SDS011;44967;48.598;15.650;2023-02-28T06:28:58;21.05;;;10.55;;
59193;SDS011;44967;48.598;15.650;2023-02-28T06:31:25;18.35;;;10.38;;
59193;SDS011;44967;48.598;15.650;2023-02-28T06:33:51;27.38;;;11.95;;
59193;SDS011;44967;48.598;15.650;2023-02-28T06:36:17;24.00;;;11.75;;
59193;SDS011;44967;48.598;15.650;2023-02-28T06:38:43;24.35;;;11.80;;
59193;SDS011;44967;48.598;15.650;2023-02-28T06:41:09;30.30;;;12.45;;
59193;SDS011;44967;48.598;15.650;2023-02-28T06:43:37;28.30;;;13.93;;
59193;SDS011;44967;48.598;15.650;2023-02-28T06:46:06;23.50;;;12.55;;
59193;SDS011;44967;48.598;15.650;2023-02-28T06:48:33;44.22;;;12.80;;
59193;SDS011;44967;48.598;15.650;2023-02-28T06:51:06;27.02;;;12.50;;
59193;SDS011;44967;48.598;15.650;2023-02-28T06:53:38;25.80;;;13.35;;
59193;SDS011;44967;48.598;15.650;2023-02-28T06:56:08;21.48;;;12.13;;
59193;SDS011;44967;48.598;15.650;2023-02-28T06:58:36;23.17;;;12.77;;
59193;SDS011;44967;48.598;15.650;2023-02-28T07:01:03;23.58;;;11.85;;
59193;SDS011;44967;48.598;15.650;2023-02-28T07:03:29;21.13;;;12.15;;
59193;SDS011;44967;48.598;15.650;2023-02-28T07:05:55;21.38;;;10.63;;
59193;SDS011;44967;48.598;15.650;2023-02-28T07:08:22;20.30;;;11.00;;
59193;SDS011;44967;48.598;15.650;2023-02-28T07:10:51;21.92;;;11.23;;
59193;SDS011;44967;48.598;15.650;2023-02-28T07:13:20;24.10;;;11.73;;
59193;SDS011;44967;48.598;15.650;2023-02-28T07:15:59;25.65;;;12.50;;
59193;SDS011;44967;48.598;15.650;2023-02-28T07:18:30;20.20;;;10.73;;
59193;SDS011;44967;48.598;15.650;2023-02-28T07:20:56;24.92;;;12.40;;
59193;SDS011;44967;48.598;15.650;2023-02-28T07:23:22;19.98;;;10.93;;
59193;SDS011;44967;48.598;15.650;2023-02-28T07:25:48;22.88;;;11.77;;
59193;SDS011;44967;48.598;15.650;2023-02-28T07:28:15;19.00;;;12.00;;
59193;SDS011;44967;48.598;15.650;2023-02-28T07:30:41;22.27;;;11.27;;
59193;SDS011;44967;48.598;15.650;2023-02-28T07:33:06;21.65;;;12.90;;
59193;SDS011;44967;48.598;15.650;2023-02-28T07:35:32;19.52;;;10.63;;
59193;SDS011;44967;48.598;15.650;2023-02-28T07:37:58;20.67;;;10.98;;
59193;SDS011;44967;48.598;15.650;2023-02-28T07:40:24;26.08;;;10.80;;
59193;SDS011;44967;48.598;15.650;2023-02-28T07:42:50;21.70;;;11.85;;
59193;SDS011;44967;48.598;15.650;2023-02-28T07:45:16;24.40;;;12.70;;
59193;SDS011;44967;48.598;15.650;2023-02-28T07:47:43;21.95;;;11.45;;
59193;SDS011;44967;48.598;15.650;2023-02-28T07:50:11;24.75;;;11.88;;
59193;SDS011;44967;48.598;15.650;2023-02-28T07:52:38;26.60;;;12.15;;
59193;SDS011;44967;48.598;15.650;2023-02-28T07:55:05;23.08;;;11.82;;
59193;SDS011;44967;48.598;15.650;2023-02-28T07:57:32;19.73;;;11.70;;
59193;SDS011;44967;48.598;15.650;2023-02-28T07:59:58;19.13;;;10.68;;
59193;SDS011;44967;48.598;15.650;2023-02-28T08:02:24;20.45;;;10.50;;
59193;SDS011;44967;48.598;15.650;2023-02-28T08:04:53;20.00;;;10.40;;
59193;SDS011;44967;48.598;15.650;2023-02-28T08:07:19;19.20;;;10.25;;
59193;SDS011;44967;48.598;15.650;2023-02-28T08:09:44;20.35;;;10.45;;
59193;SDS011;44967;48.598;15.650;2023-02-28T08:12:10;19.58;;;10.55;;
59193;SDS011;44967;48.598;15.650;2023-02-28T08:14:37;21.98;;;10.77;;
59193;SDS011;44967;48.598;15.650;2023-02-28T08:17:03;19.70;;;12.10;;
59193;SDS011;44967;48.598;15.650;2023-02-28T08:19:29;27.63;;;12.82;;
59193;SDS011;44967;48.598;15.650;2023-02-28T08:21:55;28.35;;;12.50;;
59193;SDS011;44967;48.598;15.650;2023-02-28T08:24:22;16.83;;;10.05;;
59193;SDS011;44967;48.598;15.650;2023-02-28T08:26:48;38.72;;;12.77;;
59193;SDS011;44967;48.598;15.650;2023-02-28T08:29:14;24.00;;;11.80;;
59193;SDS011;44967;48.598;15.650;2023-02-28T08:31:40;26.00;;;11.88;;
59193;SDS011;44967;48.598;15.650;2023-02-28T08:34:07;26.05;;;11.20;;
59193;SDS011;44967;48.598;15.650;2023-02-28T08:36:34;20.88;;;11.05;;
59193;SDS011;44967;48.598;15.650;2023-02-28T08:39:00;20.60;;;10.27;;
59193;SDS011;44967;48.598;15.650;2023-02-28T08:41:25;24.80;;;11.07;;
59193;SDS011;44967;48.598;15.650;2023-02-28T08:43:51;19.88;;;10.98;;
59193;SDS011;44967;48.598;15.650;2023-02-28T08:46:18;17.55;;;10.27;;
59193;SDS011;44967;48.598;15.650;2023-02-28T08:48:44;21.13;;;10.32;;
59193;SDS011;44967;48.598;15.650;2023-02-28T08:51:12;24.15;;;12.23;;
59193;SDS011;44967;48.598;15.650;2023-02-28T08:53:41;18.13;;;9.90;;
59193;SDS011;44967;48.598;15.650;2023-02-28T08:56:13;30.75;;;11.82;;
59193;SDS011;44967;48.598;15.650;2023-02-28T08:58:40;18.85;;;10.98;;
59193;SDS011;44967;48.598;15.650;2023-02-28T09:01:15;23.20;;;11.88;;
59193;SDS011;44967;48.598;15.650;2023-02-28T09:03:43;23.00;;;10.95;;
59193;SDS011;44967;48.598;15.650;2023-02-28T09:06:12;21.05;;;11.27;;
59193;SDS011;44967;48.598;15.650;2023-02-28T09:08:39;18.52;;;11.07;;
59193;SDS011;44967;48.598;15.650;2023-02-28T09:11:05;22.67;;;11.27;;
59193;SDS011;44967;48.598;15.650;2023-02-28T09:13:31;22.92;;;12.40;;
59193;SDS011;44967;48.598;15.650;2023-02-28T09:15:58;23.58;;;11.13;;
59193;SDS011;44967;48.598;15.650;2023-02-28T09:18:26;19.67;;;11.23;;
59193;SDS011;44967;48.598;15.650;2023-02-28T09:20:52;17.63;;;10.82;;
59193;SDS011;44967;48.598;15.650;2023-02-28T09:23:18;21.40;;;9.85;;
59193;SDS011;44967;48.598;15.650;2023-02-28T09:25:50;20.50;;;10.57;;
59193;SDS011;44967;48.598;15.650;2023-02-28T09:28:18;17.75;;;10.73;;
59193;SDS011;44967;48.598;15.650;2023-02-28T09:30:44;19.52;;;11.10;;
59193;SDS011;44967;48.598;15.650;2023-02-28T09:33:11;17.42;;;10.27;;
59193;SDS011;44967;48.598;15.650;2023-02-28T09:35:37;18.42;;;10.13;;
59193;SDS011;44967;48.598;15.650;2023-02-28T09:38:03;20.45;;;10.93;;
59193;SDS011;44967;48.598;15.650;2023-02-28T09:40:29;17.50;;;10.30;;
59193;SDS011;44967;48.598;15.650;2023-02-28T09:42:57;19.55;;;10.13;;
59193;SDS011;44967;48.598;15.650;2023-02-28T09:45:37;17.88;;;10.13;;
59193;SDS011;44967;48.598;15.650;2023-02-28T09:48:10;18.27;;;10.15;;
59193;SDS011;44967;48.598;15.650;2023-02-28T09:50:41;15.23;;;10.10;;
59193;SDS011;44967;48.598;15.650;2023-02-28T09:53:21;16.00;;;10.02;;
59193;SDS011;44967;48.598;15.650;2023-02-28T09:55:50;18.25;;;10.55;;
59193;SDS011;44967;48.598;15.650;2023-02-28T09:58:26;16.85;;;10.13;;
59193;SDS011;44967;48.598;15.650;2023-02-28T10:03:52;16.52;;;10.27;;
59193;SDS011;44967;48.598;15.650;2023-02-28T10:11:43;20.73;;;10.00;;
59193;SDS011;44967;48.598;15.650;2023-02-28T10:14:21;19.00;;;10.38;;
59193;SDS011;44967;48.598;15.650;2023-02-28T10:16:56;18.10;;;9.85;;
59193;SDS011;44967;48.598;15.650;2023-02-28T10:19:34;16.55;;;9.80;;
59193;SDS011;44967;48.598;15.650;2023-02-28T10:22:25;17.90;;;10.10;;
59193;SDS011;44967;48.598;15.650;2023-02-28T10:24:57;15.73;;;9.77;;
59193;SDS011;44967;48.598;15.650;2023-02-28T10:27:31;16.63;;;9.73;;
59193;SDS011;44967;48.598;15.650;2023-02-28T10:29:58;20.65;;;10.50;;
59193;SDS011;44967;48.598;15.650;2023-02-28T10:32:30;19.15;;;11.55;;
59193;SDS011;44967;48.598;15.650;2023-02-28T10:35:09;21.38;;;10.25;;
59193;SDS011;44967;48.598;15.650;2023-02-28T10:37:49;18.27;;;10.07;;
59193;SDS011;44967;48.598;15.650;2023-02-28T10:45:24;16.88;;;9.50;;
59193;SDS011;44967;48.598;15.650;2023-02-28T11:04:03;14.80;;;8.93;;
59193;SDS011;44967;48.598;15.650;2023-02-28T11:06:42;13.85;;;9.40;;
59193;SDS011;44967;48.598;15.650;2023-02-28T11:12:34;14.98;;;9.30;;
59193;SDS011;44967;48.598;15.650;2023-02-28T11:15:05;14.10;;;8.85;;
59193;SDS011;44967;48.598;15.650;2023-02-28T11:17:44;16.67;;;9.30;;
59193;SDS011;44967;48.598;15.650;2023-02-28T11:20:21;16.25;;;9.75;;
59193;SDS011;44967;48.598;15.650;2023-02-28T11:22:48;14.43;;;9.40;;
59193;SDS011;44967;48.598;15.650;2023-02-28T11:25:21;14.73;;;8.85;;
59193;SDS011;44967;48.598;15.650;2023-02-28T11:27:51;17.30;;;8.40;;
59193;SDS011;44967;48.598;15.650;2023-02-28T11:30:28;15.82;;;9.40;;
59193;SDS011;44967;48.598;15.650;2023-02-28T11:32:54;78.18;;;14.98;;
59193;SDS011;44967;48.598;15.650;2023-02-28T11:35:24;16.55;;;9.10;;
59193;SDS011;44967;48.598;15.650;2023-02-28T11:37:51;12.80;;;9.10;;
59193;SDS011;44967;48.598;15.650;2023-02-28T11:41:05;15.02;;;8.85;;
59193;SDS011;44967;48.598;15.650;2023-02-28T11:46:15;17.25;;;8.50;;
59193;SDS011;44967;48.598;15.650;2023-02-28T11:48:56;15.45;;;9.38;;
59193;SDS011;44967;48.598;15.650;2023-02-28T11:57:52;13.43;;;8.63;;
59193;SDS011;44967;48.598;15.650;2023-02-28T12:08:47;13.40;;;8.05;;
59193;SDS011;44967;48.598;15.650;2023-02-28T12:17:21;16.60;;;9.02;;
59193;SDS011;44967;48.598;15.650;2023-02-28T12:20:05;17.17;;;9.68;;
59193;SDS011;44967;48.598;15.650;2023-02-28T12:28:27;16.02;;;8.70;;
59193;SDS011;44967;48.598;15.650;2023-02-28T12:31:14;16.35;;;9.52;;
59193;SDS011;44967;48.598;15.650;2023-02-28T12:33:46;18.80;;;10.25;;
59193;SDS011;44967;48.598;15.650;2023-02-28T12:36:17;14.18;;;8.50;;
59193;SDS011;44967;48.598;15.650;2023-02-28T12:38:48;12.43;;;7.80;;
59193;SDS011;44967;48.598;15.650;2023-02-28T12:41:34;13.38;;;9.15;;
59193;SDS011;44967;48.598;15.650;2023-02-28T12:44:14;15.10;;;8.88;;
59193;SDS011;44967;48.598;15.650;2023-02-28T12:46:52;14.32;;;8.93;;
59193;SDS011;44967;48.598;15.650;2023-02-28T12:49:30;15.25;;;9.15;;
59193;SDS011;44967;48.598;15.650;2023-02-28T12:51:59;12.95;;;8.38;;
59193;SDS011;44967;48.598;15.650;2023-02-28T13:00:22;23.05;;;9.65;;
59193;SDS011;44967;48.598;15.650;2023-02-28T13:03:12;12.63;;;9.00;;
59193;SDS011;44967;48.598;15.650;2023-02-28T13:06:01;13.88;;;9.15;;
59193;SDS011;44967;48.598;15.650;2023-02-28T13:09:04;14.57;;;9.27;;
59193;SDS011;44967;48.598;15.650;2023-02-28T13:14:17;15.75;;;10.02;;
59193;SDS011;44967;48.598;15.650;2023-02-28T13:19:22;15.05;;;10.15;;
59193;SDS011;44967;48.598;15.650;2023-02-28T13:21:51;14.75;;;10.23;;
59193;SDS011;44967;48.598;15.650;2023-02-28T13:29:34;13.50;;;9.55;;
59193;SDS011;44967;48.598;15.650;2023-02-28T13:34:28;14.00;;;9.35;;
59193;SDS011;44967;48.598;15.650;2023-02-28T13:47:28;11.55;;;8.40;;
59193;SDS011;44967;48.598;15.650;2023-02-28T13:50:20;11.68;;;8.57;;
59193;SDS011;44967;48.598;15.650;2023-02-28T13:53:11;12.60;;;8.85;;
59193;SDS011;44967;48.598;15.650;2023-02-28T14:06:54;12.30;;;9.45;;
59193;SDS011;44967;48.598;15.650;2023-02-28T14:09:25;15.57;;;10.25;;
59193;SDS011;44967;48.598;15.650;2023-02-28T14:11:52;14.77;;;10.18;;
59193;SDS011;44967;48.598;15.650;2023-02-28T14:17:05;13.73;;;9.68;;
59193;SDS011;44967;48.598;15.650;2023-02-28T14:19:37;13.23;;;9.23;;
59193;SDS011;44967;48.598;15.650;2023-02-28T14:22:14;17.45;;;10.52;;
59193;SDS011;44967;48.598;15.650;2023-02-28T14:25:08;14.65;;;9.60;;
59193;SDS011;44967;48.598;15.650;2023-02-28T14:30:18;15.50;;;10.35;;
59193;SDS011;44967;48.598;15.650;2023-02-28T14:36:13;13.75;;;9.23;;
59193;SDS011;44967;48.598;15.650;2023-02-28T14:38:50;18.80;;;10.27;;
59193;SDS011;44967;48.598;15.650;2023-02-28T14:41:34;17.33;;;11.00;;
59193;SDS011;44967;48.598;15.650;2023-02-28T14:44:21;13.10;;;8.88;;
59193;SDS011;44967;48.598;15.650;2023-02-28T14:46:55;16.02;;;10.38;;
59193;SDS011;44967;48.598;15.650;2023-02-28T14:52:03;15.32;;;9.98;;
59193;SDS011;44967;48.598;15.650;2023-02-28T14:54:31;14.13;;;10.32;;
59193;SDS011;44967;48.598;15.650;2023-02-28T14:56:57;13.40;;;9.73;;
59193;SDS011;44967;48.598;15.650;2023-02-28T14:59:24;13.55;;;9.38;;
59193;SDS011;44967;48.598;15.650;2023-02-28T15:02:14;17.85;;;10.13;;
59193;SDS011;44967;48.598;15.650;2023-02-28T15:04:52;14.93;;;9.73;;
59193;SDS011;44967;48.598;15.650;2023-02-28T15:07:19;18.02;;;9.18;;
59193;SDS011;44967;48.598;15.650;2023-02-28T15:09:44;13.52;;;9.50;;
59193;SDS011;44967;48.598;15.650;2023-02-28T15:12:13;16.63;;;10.30;;
59193;SDS011;44967;48.598;15.650;2023-02-28T15:14:42;15.18;;;8.98;;
59193;SDS011;44967;48.598;15.650;2023-02-28T15:17:11;18.50;;;10.23;;
59193;SDS011;44967;48.598;15.650;2023-02-28T15:19:46;28.05;;;10.70;;
59193;SDS011;44967;48.598;15.650;2023-02-28T15:22:17;16.65;;;10.48;;
59193;SDS011;44967;48.598;15.650;2023-02-28T15:24:49;18.83;;;10.18;;
59193;SDS011;44967;48.598;15.650;2023-02-28T15:29:47;19.00;;;10.30;;
59193;SDS011;44967;48.598;15.650;2023-02-28T15:32:29;18.42;;;10.10;;
59193;SDS011;44967;48.598;15.650;2023-02-28T15:35:24;13.30;;;10.05;;
59193;SDS011;44967;48.598;15.650;2023-02-28T15:37:57;14.27;;;10.25;;
59193;SDS011;44967;48.598;15.650;2023-02-28T15:43:03;15.15;;;8.85;;
59193;SDS011;44967;48.598;15.650;2023-02-28T15:45:56;12.43;;;8.55;;
59193;SDS011;44967;48.598;15.650;2023-02-28T15:51:05;12.02;;;7.72;;
59193;SDS011;44967;48.598;15.650;2023-02-28T15:53:35;13.65;;;9.00;;
59193;SDS011;44967;48.598;15.650;2023-02-28T15:58:55;16.65;;;8.15;;
59193;SDS011;44967;48.598;15.650;2023-02-28T16:01:29;14.50;;;8.52;;
59193;SDS011;44967;48.598;15.650;2023-02-28T16:03:58;19.57;;;11.17;;
59193;SDS011;44967;48.598;15.650;2023-02-28T16:08:58;13.95;;;9.20;;
59193;SDS011;44967;48.598;15.650;2023-02-28T16:11:24;14.25;;;8.68;;
59193;SDS011;44967;48.598;15.650;2023-02-28T16:13:50;14.50;;;9.25;;
59193;SDS011;44967;48.598;15.650;2023-02-28T16:16:20;13.38;;;8.73;;
59193;SDS011;44967;48.598;15.650;2023-02-28T16:18:50;89.55;;;15.27;;
59193;SDS011;44967;48.598;15.650;2023-02-28T16:21:16;18.60;;;9.77;;
59193;SDS011;44967;48.598;15.650;2023-02-28T16:23:42;18.98;;;9.57;;
59193;SDS011;44967;48.598;15.650;2023-02-28T16:26:10;11.10;;;8.07;;
59193;SDS011;44967;48.598;15.650;2023-02-28T16:28:43;12.15;;;8.48;;
59193;SDS011;44967;48.598;15.650;2023-02-28T16:31:09;15.57;;;9.77;;
59193;SDS011;44967;48.598;15.650;2023-02-28T16:33:42;24.77;;;9.85;;
59193;SDS011;44967;48.598;15.650;2023-02-28T16:36:19;18.90;;;8.50;;
59193;SDS011;44967;48.598;15.650;2023-02-28T16:38:46;37.65;;;11.38;;
59193;SDS011;44967;48.598;15.650;2023-02-28T16:41:14;13.75;;;9.20;;
59193;SDS011;44967;48.598;15.650;2023-02-28T16:43:45;13.18;;;8.32;;
59193;SDS011;44967;48.598;15.650;2023-02-28T16:46:12;14.00;;;9.05;;
59193;SDS011;44967;48.598;15.650;2023-02-28T16:48:38;14.65;;;8.77;;
59193;SDS011;44967;48.598;15.650;2023-02-28T16:51:06;13.25;;;8.88;;
59193;SDS011;44967;48.598;15.650;2023-02-28T16:53:36;19.38;;;9.07;;
59193;SDS011;44967;48.598;15.650;2023-02-28T16:56:02;19.67;;;9.40;;
59193;SDS011;44967;48.598;15.650;2023-02-28T16:58:29;12.77;;;8.95;;
59193;SDS011;44967;48.598;15.650;2023-02-28T17:00:55;19.65;;;10.00;;
59193;SDS011;44967;48.598;15.650;2023-02-28T17:03:23;13.60;;;8.35;;